sensor_id;sensor_type;location;lat;lon;timestamp;temperature;humidity
32293;DHT22;43233;48.608;8.838;2022-12-18T00:01:36;-8.00;75.40
32293;DHT22;43233;48.608;8.838;2022-12-18T00:04:07;-8.00;75.20
32293;DHT22;43233;48.608;8.838;2022-12-18T00:06:35;-8.00;75.20
32293;DHT22;43233;48.608;8.838;2022-12-18T00:09:02;-8.00;75.20
32293;DHT22;43233;48.608;8.838;2022-12-18T00:11:29;-8.00;75.10
32293;DHT22;43233;48.608;8.838;2022-12-18T00:13:57;-7.90;75.10
32293;DHT22;43233;48.608;8.838;2022-12-18T00:16:24;-7.90;74.80
32293;DHT22;43233;48.608;8.838;2022-12-18T00:18:53;-7.90;74.10
32293;DHT22;43233;48.608;8.838;2022-12-18T00:21:20;-8.00;73.60
32293;DHT22;43233;48.608;8.838;2022-12-18T00:23:47;-8.00;73.70
32293;DHT22;43233;48.608;8.838;2022-12-18T00:26:19;-8.00;73.40
32293;DHT22;43233;48.608;8.838;2022-12-18T00:28:46;-8.00;72.90
32293;DHT22;43233;48.608;8.838;2022-12-18T00:31:17;-8.10;72.60
32293;DHT22;43233;48.608;8.838;2022-12-18T00:33:43;-8.20;72.20
32293;DHT22;43233;48.608;8.838;2022-12-18T00:36:18;-8.30;71.40
32293;DHT22;43233;48.608;8.838;2022-12-18T00:38:45;-8.30;68.90
32293;DHT22;43233;48.608;8.838;2022-12-18T00:41:12;-8.50;65.30
32293;DHT22;43233;48.608;8.838;2022-12-18T00:43:39;-8.90;62.30
32293;DHT22;43233;48.608;8.838;2022-12-18T00:46:05;-9.10;61.80
32293;DHT22;43233;48.608;8.838;2022-12-18T00:48:31;-9.50;60.30
32293;DHT22;43233;48.608;8.838;2022-12-18T00:50:57;-9.90;60.80
32293;DHT22;43233;48.608;8.838;2022-12-18T00:53:23;-10.10;61.60
32293;DHT22;43233;48.608;8.838;2022-12-18T00:55:48;-10.40;62.60
32293;DHT22;43233;48.608;8.838;2022-12-18T00:58:16;-10.70;63.90
32293;DHT22;43233;48.608;8.838;2022-12-18T01:00:42;-10.80;65.80
32293;DHT22;43233;48.608;8.838;2022-12-18T01:03:07;-10.80;66.20
32293;DHT22;43233;48.608;8.838;2022-12-18T01:05:33;-10.80;66.40
32293;DHT22;43233;48.608;8.838;2022-12-18T01:07:59;-10.80;67.10
32293;DHT22;43233;48.608;8.838;2022-12-18T01:10:25;-10.70;67.70
32293;DHT22;43233;48.608;8.838;2022-12-18T01:12:51;-10.60;68.80
32293;DHT22;43233;48.608;8.838;2022-12-18T01:15:17;-10.50;70.50
32293;DHT22;43233;48.608;8.838;2022-12-18T01:17:43;-10.40;72.00
32293;DHT22;43233;48.608;8.838;2022-12-18T01:20:10;-10.30;72.00
32293;DHT22;43233;48.608;8.838;2022-12-18T01:22:36;-10.20;71.90
32293;DHT22;43233;48.608;8.838;2022-12-18T01:25:03;-10.10;71.30
32293;DHT22;43233;48.608;8.838;2022-12-18T01:27:29;-10.10;70.80
32293;DHT22;43233;48.608;8.838;2022-12-18T01:29:55;-10.10;70.10
32293;DHT22;43233;48.608;8.838;2022-12-18T01:32:21;-10.10;69.10
32293;DHT22;43233;48.608;8.838;2022-12-18T01:34:47;-10.20;67.60
32293;DHT22;43233;48.608;8.838;2022-12-18T01:37:13;-10.30;68.20
32293;DHT22;43233;48.608;8.838;2022-12-18T01:39:39;-10.30;70.60
32293;DHT22;43233;48.608;8.838;2022-12-18T01:42:14;-10.40;70.70
32293;DHT22;43233;48.608;8.838;2022-12-18T01:47:28;-10.50;63.30
32293;DHT22;43233;48.608;8.838;2022-12-18T01:49:57;-10.60;62.10
32293;DHT22;43233;48.608;8.838;2022-12-18T01:52:26;-10.70;61.40
32293;DHT22;43233;48.608;8.838;2022-12-18T01:54:54;-10.80;65.50
32293;DHT22;43233;48.608;8.838;2022-12-18T01:57:21;-11.00;65.70
32293;DHT22;43233;48.608;8.838;2022-12-18T01:59:51;-11.20;66.30
32293;DHT22;43233;48.608;8.838;2022-12-18T02:02:18;-11.20;65.60
32293;DHT22;43233;48.608;8.838;2022-12-18T02:04:44;-11.40;67.50
32293;DHT22;43233;48.608;8.838;2022-12-18T02:13:22;-11.70;65.70
32293;DHT22;43233;48.608;8.838;2022-12-18T02:15:28;-11.80;65.80
32293;DHT22;43233;48.608;8.838;2022-12-18T02:20:48;-12.00;67.40
32293;DHT22;43233;48.608;8.838;2022-12-18T02:23:40;-12.00;68.00
32293;DHT22;43233;48.608;8.838;2022-12-18T02:26:26;-12.10;68.20
32293;DHT22;43233;48.608;8.838;2022-12-18T02:29:10;-12.10;68.30
32293;DHT22;43233;48.608;8.838;2022-12-18T02:31:42;-12.20;68.30
32293;DHT22;43233;48.608;8.838;2022-12-18T02:34:09;-12.30;68.20
32293;DHT22;43233;48.608;8.838;2022-12-18T02:36:37;-12.30;69.30
32293;DHT22;43233;48.608;8.838;2022-12-18T02:39:05;-12.20;69.20
32293;DHT22;43233;48.608;8.838;2022-12-18T02:41:32;-12.10;68.80
32293;DHT22;43233;48.608;8.838;2022-12-18T02:44:06;-12.20;68.40
32293;DHT22;43233;48.608;8.838;2022-12-18T02:46:33;-12.30;68.10
32293;DHT22;43233;48.608;8.838;2022-12-18T02:49:26;-12.30;68.70
32293;DHT22;43233;48.608;8.838;2022-12-18T02:51:55;-12.20;69.50
32293;DHT22;43233;48.608;8.838;2022-12-18T02:54:41;-12.10;69.30
32293;DHT22;43233;48.608;8.838;2022-12-18T02:57:35;-12.10;69.10
32293;DHT22;43233;48.608;8.838;2022-12-18T03:00:31;-12.10;69.40
32293;DHT22;43233;48.608;8.838;2022-12-18T03:05:33;-12.10;70.00
32293;DHT22;43233;48.608;8.838;2022-12-18T03:10:42;-12.00;69.80
32293;DHT22;43233;48.608;8.838;2022-12-18T03:13:16;-12.00;69.70
32293;DHT22;43233;48.608;8.838;2022-12-18T03:15:47;-12.00;70.00
32293;DHT22;43233;48.608;8.838;2022-12-18T03:18:24;-12.10;70.50
32293;DHT22;43233;48.608;8.838;2022-12-18T03:20:51;-12.10;71.00
32293;DHT22;43233;48.608;8.838;2022-12-18T03:23:22;-12.00;71.00
32293;DHT22;43233;48.608;8.838;2022-12-18T03:25:52;-12.10;71.10
32293;DHT22;43233;48.608;8.838;2022-12-18T03:28:21;-12.00;71.20
32293;DHT22;43233;48.608;8.838;2022-12-18T03:30:50;-12.00;71.30
32293;DHT22;43233;48.608;8.838;2022-12-18T03:33:39;-12.00;71.60
32293;DHT22;43233;48.608;8.838;2022-12-18T03:36:07;-11.90;72.10
32293;DHT22;43233;48.608;8.838;2022-12-18T03:38:32;-11.90;72.00
32293;DHT22;43233;48.608;8.838;2022-12-18T03:41:22;-11.80;71.90
32293;DHT22;43233;48.608;8.838;2022-12-18T03:44:13;-11.80;71.70
32293;DHT22;43233;48.608;8.838;2022-12-18T03:47:00;-11.80;71.50
32293;DHT22;43233;48.608;8.838;2022-12-18T03:49:36;-11.70;71.70
32293;DHT22;43233;48.608;8.838;2022-12-18T03:52:11;-11.60;71.60
32293;DHT22;43233;48.608;8.838;2022-12-18T03:54:39;-11.60;71.40
32293;DHT22;43233;48.608;8.838;2022-12-18T03:57:11;-11.50;71.50
32293;DHT22;43233;48.608;8.838;2022-12-18T03:59:39;-11.40;71.50
32293;DHT22;43233;48.608;8.838;2022-12-18T04:02:06;-11.40;71.40
32293;DHT22;43233;48.608;8.838;2022-12-18T04:04:34;-11.30;71.40
32293;DHT22;43233;48.608;8.838;2022-12-18T04:07:01;-11.20;71.50
32293;DHT22;43233;48.608;8.838;2022-12-18T04:09:28;-11.20;71.50
32293;DHT22;43233;48.608;8.838;2022-12-18T04:14:21;-11.00;71.00
32293;DHT22;43233;48.608;8.838;2022-12-18T04:16:46;-11.00;71.70
32293;DHT22;43233;48.608;8.838;2022-12-18T04:19:12;-10.90;71.80
32293;DHT22;43233;48.608;8.838;2022-12-18T04:21:38;-10.80;71.80
32293;DHT22;43233;48.608;8.838;2022-12-18T04:24:04;-10.80;71.90
32293;DHT22;43233;48.608;8.838;2022-12-18T04:26:30;-10.70;72.30
32293;DHT22;43233;48.608;8.838;2022-12-18T04:28:56;-10.70;72.40
32293;DHT22;43233;48.608;8.838;2022-12-18T04:33:47;-10.50;72.10
32293;DHT22;43233;48.608;8.838;2022-12-18T04:36:13;-10.50;73.00
32293;DHT22;43233;48.608;8.838;2022-12-18T04:38:38;-10.30;73.70
32293;DHT22;43233;48.608;8.838;2022-12-18T04:41:04;-10.20;74.10
32293;DHT22;43233;48.608;8.838;2022-12-18T04:43:30;-10.20;74.90
32293;DHT22;43233;48.608;8.838;2022-12-18T04:46:06;-10.10;75.50
32293;DHT22;43233;48.608;8.838;2022-12-18T04:48:32;-9.90;76.20
32293;DHT22;43233;48.608;8.838;2022-12-18T04:50:58;-9.90;76.80
32293;DHT22;43233;48.608;8.838;2022-12-18T04:53:23;-9.80;77.00
32293;DHT22;43233;48.608;8.838;2022-12-18T04:55:49;-9.70;77.30
32293;DHT22;43233;48.608;8.838;2022-12-18T04:58:15;-9.60;83.80
32293;DHT22;43233;48.608;8.838;2022-12-18T05:00:41;-9.60;83.50
32293;DHT22;43233;48.608;8.838;2022-12-18T05:03:06;-9.60;83.70
32293;DHT22;43233;48.608;8.838;2022-12-18T05:05:34;-9.50;81.60
32293;DHT22;43233;48.608;8.838;2022-12-18T05:08:00;-9.50;77.50
32293;DHT22;43233;48.608;8.838;2022-12-18T05:10:26;-9.40;77.20
32293;DHT22;43233;48.608;8.838;2022-12-18T05:12:51;-9.40;76.70
32293;DHT22;43233;48.608;8.838;2022-12-18T05:15:24;-9.40;76.40
32293;DHT22;43233;48.608;8.838;2022-12-18T05:17:51;-9.30;76.00
32293;DHT22;43233;48.608;8.838;2022-12-18T05:20:17;-9.40;74.70
32293;DHT22;43233;48.608;8.838;2022-12-18T05:22:43;-9.50;74.30
32293;DHT22;43233;48.608;8.838;2022-12-18T05:25:09;-9.50;73.90
32293;DHT22;43233;48.608;8.838;2022-12-18T05:27:34;-9.50;73.50
32293;DHT22;43233;48.608;8.838;2022-12-18T05:30:00;-9.60;72.70
32293;DHT22;43233;48.608;8.838;2022-12-18T05:32:26;-9.70;71.10
32293;DHT22;43233;48.608;8.838;2022-12-18T05:34:51;-9.90;71.90
32293;DHT22;43233;48.608;8.838;2022-12-18T05:37:17;-9.90;72.60
32293;DHT22;43233;48.608;8.838;2022-12-18T05:39:43;-9.90;72.80
32293;DHT22;43233;48.608;8.838;2022-12-18T05:42:09;-9.90;73.00
32293;DHT22;43233;48.608;8.838;2022-12-18T05:44:35;-9.90;72.90
32293;DHT22;43233;48.608;8.838;2022-12-18T05:47:00;-9.90;72.70
32293;DHT22;43233;48.608;8.838;2022-12-18T05:49:26;-9.80;72.60
32293;DHT22;43233;48.608;8.838;2022-12-18T05:51:52;-9.90;72.50
32293;DHT22;43233;48.608;8.838;2022-12-18T05:54:17;-9.90;72.40
32293;DHT22;43233;48.608;8.838;2022-12-18T05:56:43;-9.90;72.30
32293;DHT22;43233;48.608;8.838;2022-12-18T05:59:08;-10.00;72.20
32293;DHT22;43233;48.608;8.838;2022-12-18T06:01:35;-9.90;72.50
32293;DHT22;43233;48.608;8.838;2022-12-18T06:04:00;-10.00;72.00
32293;DHT22;43233;48.608;8.838;2022-12-18T06:06:27;-10.20;71.60
32293;DHT22;43233;48.608;8.838;2022-12-18T06:08:54;-10.30;71.60
32293;DHT22;43233;48.608;8.838;2022-12-18T06:11:22;-10.40;71.50
32293;DHT22;43233;48.608;8.838;2022-12-18T06:13:55;-10.60;71.20
32293;DHT22;43233;48.608;8.838;2022-12-18T06:16:21;-10.80;72.10
32293;DHT22;43233;48.608;8.838;2022-12-18T06:18:47;-10.90;73.20
32293;DHT22;43233;48.608;8.838;2022-12-18T06:21:12;-11.00;73.10
32293;DHT22;43233;48.608;8.838;2022-12-18T06:23:38;-11.00;72.80
32293;DHT22;43233;48.608;8.838;2022-12-18T06:26:08;-11.10;72.80
32293;DHT22;43233;48.608;8.838;2022-12-18T06:28:34;-11.10;72.50
32293;DHT22;43233;48.608;8.838;2022-12-18T06:31:00;-11.20;71.90
32293;DHT22;43233;48.608;8.838;2022-12-18T06:33:26;-11.20;71.80
32293;DHT22;43233;48.608;8.838;2022-12-18T06:35:52;-11.20;71.90
32293;DHT22;43233;48.608;8.838;2022-12-18T06:38:18;-11.20;71.80
32293;DHT22;43233;48.608;8.838;2022-12-18T06:40:43;-11.30;72.10
32293;DHT22;43233;48.608;8.838;2022-12-18T06:43:09;-11.30;72.10
32293;DHT22;43233;48.608;8.838;2022-12-18T06:45:34;-11.30;71.80
32293;DHT22;43233;48.608;8.838;2022-12-18T06:48:00;-11.40;71.70
32293;DHT22;43233;48.608;8.838;2022-12-18T06:50:26;-11.40;71.10
32293;DHT22;43233;48.608;8.838;2022-12-18T06:52:51;-11.40;70.50
32293;DHT22;43233;48.608;8.838;2022-12-18T06:55:17;-11.40;70.80
32293;DHT22;43233;48.608;8.838;2022-12-18T06:57:43;-11.40;70.50
32293;DHT22;43233;48.608;8.838;2022-12-18T07:00:09;-11.40;70.70
32293;DHT22;43233;48.608;8.838;2022-12-18T07:02:35;-11.40;70.50
32293;DHT22;43233;48.608;8.838;2022-12-18T07:05:01;-11.30;70.40
32293;DHT22;43233;48.608;8.838;2022-12-18T07:07:27;-11.30;70.40
32293;DHT22;43233;48.608;8.838;2022-12-18T07:09:52;-11.30;70.40
32293;DHT22;43233;48.608;8.838;2022-12-18T07:12:18;-11.30;70.50
32293;DHT22;43233;48.608;8.838;2022-12-18T07:14:44;-11.20;70.70
32293;DHT22;43233;48.608;8.838;2022-12-18T07:17:09;-11.20;70.90
32293;DHT22;43233;48.608;8.838;2022-12-18T07:19:35;-11.10;71.30
32293;DHT22;43233;48.608;8.838;2022-12-18T07:22:01;-11.10;71.70
32293;DHT22;43233;48.608;8.838;2022-12-18T07:24:26;-11.00;72.00
32293;DHT22;43233;48.608;8.838;2022-12-18T07:26:52;-11.00;72.00
32293;DHT22;43233;48.608;8.838;2022-12-18T07:29:18;-10.90;72.20
32293;DHT22;43233;48.608;8.838;2022-12-18T07:31:44;-10.80;72.00
32293;DHT22;43233;48.608;8.838;2022-12-18T07:34:11;-10.80;71.80
32293;DHT22;43233;48.608;8.838;2022-12-18T07:36:37;-10.80;72.50
32293;DHT22;43233;48.608;8.838;2022-12-18T07:39:03;-10.80;72.00
32293;DHT22;43233;48.608;8.838;2022-12-18T07:41:28;-10.80;72.50
32293;DHT22;43233;48.608;8.838;2022-12-18T07:43:54;-10.70;72.80
32293;DHT22;43233;48.608;8.838;2022-12-18T07:46:20;-10.70;73.00
32293;DHT22;43233;48.608;8.838;2022-12-18T07:48:46;-10.70;73.50
32293;DHT22;43233;48.608;8.838;2022-12-18T07:51:11;-10.60;74.00
32293;DHT22;43233;48.608;8.838;2022-12-18T07:53:38;-10.50;74.30
32293;DHT22;43233;48.608;8.838;2022-12-18T07:56:07;-10.40;74.20
32293;DHT22;43233;48.608;8.838;2022-12-18T07:58:34;-10.30;74.20
32293;DHT22;43233;48.608;8.838;2022-12-18T08:01:10;-10.30;74.30
32293;DHT22;43233;48.608;8.838;2022-12-18T08:03:37;-10.10;74.80
32293;DHT22;43233;48.608;8.838;2022-12-18T08:08:30;-9.90;73.30
32293;DHT22;43233;48.608;8.838;2022-12-18T08:10:57;-9.80;73.20
32293;DHT22;43233;48.608;8.838;2022-12-18T08:13:23;-9.80;72.00
32293;DHT22;43233;48.608;8.838;2022-12-18T08:15:59;-9.80;70.30
32293;DHT22;43233;48.608;8.838;2022-12-18T08:18:25;-9.90;68.50
32293;DHT22;43233;48.608;8.838;2022-12-18T08:20:50;-10.00;68.00
32293;DHT22;43233;48.608;8.838;2022-12-18T08:23:16;-10.10;67.20
32293;DHT22;43233;48.608;8.838;2022-12-18T08:25:42;-10.20;67.00
32293;DHT22;43233;48.608;8.838;2022-12-18T08:28:07;-10.30;66.80
32293;DHT22;43233;48.608;8.838;2022-12-18T08:30:33;-10.40;67.30
32293;DHT22;43233;48.608;8.838;2022-12-18T08:32:59;-10.40;68.10
32293;DHT22;43233;48.608;8.838;2022-12-18T08:35:24;-10.40;69.00
32293;DHT22;43233;48.608;8.838;2022-12-18T08:37:50;-10.30;70.00
32293;DHT22;43233;48.608;8.838;2022-12-18T08:40:15;-10.20;70.60
32293;DHT22;43233;48.608;8.838;2022-12-18T08:42:41;-10.10;72.00
32293;DHT22;43233;48.608;8.838;2022-12-18T08:45:25;-10.00;74.60
32293;DHT22;43233;48.608;8.838;2022-12-18T08:47:51;-9.80;75.30
32293;DHT22;43233;48.608;8.838;2022-12-18T08:50:17;-9.60;75.50
32293;DHT22;43233;48.608;8.838;2022-12-18T08:52:43;-9.50;76.30
32293;DHT22;43233;48.608;8.838;2022-12-18T08:55:11;-9.10;76.30
32293;DHT22;43233;48.608;8.838;2022-12-18T08:57:37;-9.20;76.90
32293;DHT22;43233;48.608;8.838;2022-12-18T09:00:04;-9.00;76.30
32293;DHT22;43233;48.608;8.838;2022-12-18T09:02:30;-8.90;76.00
32293;DHT22;43233;48.608;8.838;2022-12-18T09:04:55;-8.80;75.40
32293;DHT22;43233;48.608;8.838;2022-12-18T09:07:21;-8.70;75.10
32293;DHT22;43233;48.608;8.838;2022-12-18T09:12:12;-8.50;73.40
32293;DHT22;43233;48.608;8.838;2022-12-18T09:14:38;-8.40;72.40
32293;DHT22;43233;48.608;8.838;2022-12-18T09:17:04;-8.30;70.60
32293;DHT22;43233;48.608;8.838;2022-12-18T09:19:29;-8.40;69.20
32293;DHT22;43233;48.608;8.838;2022-12-18T09:21:55;-8.50;69.40
32293;DHT22;43233;48.608;8.838;2022-12-18T09:24:23;-8.40;68.70
32293;DHT22;43233;48.608;8.838;2022-12-18T09:26:53;-8.30;67.80
32293;DHT22;43233;48.608;8.838;2022-12-18T09:29:19;-8.30;67.70
32293;DHT22;43233;48.608;8.838;2022-12-18T09:31:45;-8.30;68.40
32293;DHT22;43233;48.608;8.838;2022-12-18T09:34:11;-8.30;69.70
32293;DHT22;43233;48.608;8.838;2022-12-18T09:36:37;-8.20;69.80
32293;DHT22;43233;48.608;8.838;2022-12-18T09:39:03;-8.10;70.50
32293;DHT22;43233;48.608;8.838;2022-12-18T09:41:53;-7.90;71.10
32293;DHT22;43233;48.608;8.838;2022-12-18T09:44:26;-7.60;71.30
32293;DHT22;43233;48.608;8.838;2022-12-18T09:49:58;-7.40;71.70
32293;DHT22;43233;48.608;8.838;2022-12-18T09:52:44;-7.10;72.40
32293;DHT22;43233;48.608;8.838;2022-12-18T09:55:32;-7.00;71.90
32293;DHT22;43233;48.608;8.838;2022-12-18T09:58:05;-6.90;72.10
32293;DHT22;43233;48.608;8.838;2022-12-18T10:00:31;-6.70;72.40
32293;DHT22;43233;48.608;8.838;2022-12-18T10:03:08;-6.50;71.40
32293;DHT22;43233;48.608;8.838;2022-12-18T10:10:47;-6.20;71.40
32293;DHT22;43233;48.608;8.838;2022-12-18T10:19:12;-5.60;71.80
32293;DHT22;43233;48.608;8.838;2022-12-18T10:27:24;-5.00;66.50
32293;DHT22;43233;48.608;8.838;2022-12-18T10:32:18;-4.80;99.80
32293;DHT22;43233;48.608;8.838;2022-12-18T10:34:46;-4.70;78.60
32293;DHT22;43233;48.608;8.838;2022-12-18T10:37:20;-4.80;62.90
32293;DHT22;43233;48.608;8.838;2022-12-18T10:42:35;-4.80;61.50
32293;DHT22;43233;48.608;8.838;2022-12-18T10:45:12;-4.80;62.30
32293;DHT22;43233;48.608;8.838;2022-12-18T10:47:46;-4.70;62.80
32293;DHT22;43233;48.608;8.838;2022-12-18T10:50:30;-4.60;63.40
32293;DHT22;43233;48.608;8.838;2022-12-18T10:52:59;-4.50;74.40
32293;DHT22;43233;48.608;8.838;2022-12-18T10:55:37;-4.40;65.90
32293;DHT22;43233;48.608;8.838;2022-12-18T10:58:26;-4.20;67.80
32293;DHT22;43233;48.608;8.838;2022-12-18T11:01:02;-4.30;68.70
32293;DHT22;43233;48.608;8.838;2022-12-18T11:03:31;-4.20;68.40
32293;DHT22;43233;48.608;8.838;2022-12-18T11:06:23;-4.10;62.50
32293;DHT22;43233;48.608;8.838;2022-12-18T11:11:27;-3.90;61.90
32293;DHT22;43233;48.608;8.838;2022-12-18T11:14:01;-3.80;61.50
32293;DHT22;43233;48.608;8.838;2022-12-18T11:16:29;-3.70;61.10
32293;DHT22;43233;48.608;8.838;2022-12-18T11:19:31;-3.70;61.30
32293;DHT22;43233;48.608;8.838;2022-12-18T11:21:55;-3.60;62.00
32293;DHT22;43233;48.608;8.838;2022-12-18T11:26:59;-3.30;91.90
32293;DHT22;43233;48.608;8.838;2022-12-18T11:29:38;-2.90;61.20
32293;DHT22;43233;48.608;8.838;2022-12-18T11:32:27;-2.60;58.20
32293;DHT22;43233;48.608;8.838;2022-12-18T11:35:03;-2.30;56.60
32293;DHT22;43233;48.608;8.838;2022-12-18T11:37:34;-2.00;55.70
32293;DHT22;43233;48.608;8.838;2022-12-18T11:42:55;-1.50;54.90
32293;DHT22;43233;48.608;8.838;2022-12-18T11:45:30;-1.20;54.00
32293;DHT22;43233;48.608;8.838;2022-12-18T11:48:04;-0.90;53.80
32293;DHT22;43233;48.608;8.838;2022-12-18T11:53:11;-0.50;52.40
32293;DHT22;43233;48.608;8.838;2022-12-18T11:56:00;-0.40;52.50
32293;DHT22;43233;48.608;8.838;2022-12-18T12:01:38;-0.30;52.70
32293;DHT22;43233;48.608;8.838;2022-12-18T12:04:11;-0.30;53.10
32293;DHT22;43233;48.608;8.838;2022-12-18T12:25:59;0.00;50.10
32293;DHT22;43233;48.608;8.838;2022-12-18T12:38:43;0.00;49.50
32293;DHT22;43233;48.608;8.838;2022-12-18T12:41:13;0.00;49.90
32293;DHT22;43233;48.608;8.838;2022-12-18T12:44:01;-0.20;51.50
32293;DHT22;43233;48.608;8.838;2022-12-18T12:46:32;-0.30;52.40
32293;DHT22;43233;48.608;8.838;2022-12-18T12:49:02;-0.30;52.50
32293;DHT22;43233;48.608;8.838;2022-12-18T12:51:35;-0.30;54.00
32293;DHT22;43233;48.608;8.838;2022-12-18T12:54:05;-0.30;54.30
32293;DHT22;43233;48.608;8.838;2022-12-18T12:57:00;-0.10;54.60
32293;DHT22;43233;48.608;8.838;2022-12-18T12:59:35;0.00;53.70
32293;DHT22;43233;48.608;8.838;2022-12-18T13:04:57;0.10;52.50
32293;DHT22;43233;48.608;8.838;2022-12-18T13:07:51;0.30;51.70
32293;DHT22;43233;48.608;8.838;2022-12-18T13:13:15;0.50;50.80
32293;DHT22;43233;48.608;8.838;2022-12-18T13:18:28;0.60;50.00
32293;DHT22;43233;48.608;8.838;2022-12-18T13:25:52;0.40;47.80
32293;DHT22;43233;48.608;8.838;2022-12-18T13:30:58;-0.10;49.20
32293;DHT22;43233;48.608;8.838;2022-12-18T13:33:36;-0.30;49.80
32293;DHT22;43233;48.608;8.838;2022-12-18T13:38:47;-0.60;51.10
32293;DHT22;43233;48.608;8.838;2022-12-18T13:41:32;-0.70;51.20
32293;DHT22;43233;48.608;8.838;2022-12-18T13:46:47;-0.70;51.90
32293;DHT22;43233;48.608;8.838;2022-12-18T13:51:44;-0.70;51.80
32293;DHT22;43233;48.608;8.838;2022-12-18T13:54:29;-0.70;50.80
32293;DHT22;43233;48.608;8.838;2022-12-18T13:56:55;-0.80;50.80
32293;DHT22;43233;48.608;8.838;2022-12-18T13:59:24;-1.00;51.10
32293;DHT22;43233;48.608;8.838;2022-12-18T14:06:50;-1.60;53.70
32293;DHT22;43233;48.608;8.838;2022-12-18T14:09:21;-1.70;54.20
32293;DHT22;43233;48.608;8.838;2022-12-18T14:11:50;-1.90;55.10
32293;DHT22;43233;48.608;8.838;2022-12-18T14:14:17;-2.00;55.60
32293;DHT22;43233;48.608;8.838;2022-12-18T14:16:43;-2.00;56.10
32293;DHT22;43233;48.608;8.838;2022-12-18T14:19:15;-1.90;55.70
32293;DHT22;43233;48.608;8.838;2022-12-18T14:21:46;-2.00;55.90
32293;DHT22;43233;48.608;8.838;2022-12-18T14:24:17;-2.10;56.30
32293;DHT22;43233;48.608;8.838;2022-12-18T14:26:43;-2.10;56.10
32293;DHT22;43233;48.608;8.838;2022-12-18T14:29:23;-2.10;56.20
32293;DHT22;43233;48.608;8.838;2022-12-18T14:32:11;-2.20;56.50
32293;DHT22;43233;48.608;8.838;2022-12-18T14:34:37;-2.20;56.20
32293;DHT22;43233;48.608;8.838;2022-12-18T14:37:04;-2.20;56.10
32293;DHT22;43233;48.608;8.838;2022-12-18T14:39:30;-2.20;56.40
32293;DHT22;43233;48.608;8.838;2022-12-18T14:41:55;-2.30;56.80
32293;DHT22;43233;48.608;8.838;2022-12-18T14:44:21;-2.30;56.90
32293;DHT22;43233;48.608;8.838;2022-12-18T14:46:48;-2.30;57.10
32293;DHT22;43233;48.608;8.838;2022-12-18T14:49:33;-2.40;57.30
32293;DHT22;43233;48.608;8.838;2022-12-18T14:52:06;-2.60;57.70
32293;DHT22;43233;48.608;8.838;2022-12-18T14:54:46;-2.70;58.00
32293;DHT22;43233;48.608;8.838;2022-12-18T14:57:22;-2.70;58.20
32293;DHT22;43233;48.608;8.838;2022-12-18T14:59:48;-2.80;58.40
32293;DHT22;43233;48.608;8.838;2022-12-18T15:04:46;-3.10;58.80
32293;DHT22;43233;48.608;8.838;2022-12-18T15:07:20;-3.10;59.30
32293;DHT22;43233;48.608;8.838;2022-12-18T15:10:12;-3.10;59.60
32293;DHT22;43233;48.608;8.838;2022-12-18T15:12:45;-3.20;60.00
32293;DHT22;43233;48.608;8.838;2022-12-18T15:18:20;-3.30;61.10
32293;DHT22;43233;48.608;8.838;2022-12-18T15:21:07;-3.30;61.90
32293;DHT22;43233;48.608;8.838;2022-12-18T15:26:13;-3.40;61.70
32293;DHT22;43233;48.608;8.838;2022-12-18T15:28:46;-3.40;62.10
32293;DHT22;43233;48.608;8.838;2022-12-18T15:36:09;-3.50;62.60
32293;DHT22;43233;48.608;8.838;2022-12-18T15:38:35;-3.50;62.70
32293;DHT22;43233;48.608;8.838;2022-12-18T15:41:01;-3.60;62.80
32293;DHT22;43233;48.608;8.838;2022-12-18T15:43:28;-3.60;63.10
32293;DHT22;43233;48.608;8.838;2022-12-18T15:46:12;-3.70;63.10
32293;DHT22;43233;48.608;8.838;2022-12-18T15:48:49;-3.80;63.00
32293;DHT22;43233;48.608;8.838;2022-12-18T15:51:20;-3.80;63.20
32293;DHT22;43233;48.608;8.838;2022-12-18T15:53:47;-3.90;63.90
32293;DHT22;43233;48.608;8.838;2022-12-18T15:56:15;-4.00;64.00
32293;DHT22;43233;48.608;8.838;2022-12-18T15:58:59;-4.10;64.10
32293;DHT22;43233;48.608;8.838;2022-12-18T16:01:29;-4.20;64.00
32293;DHT22;43233;48.608;8.838;2022-12-18T16:03:55;-4.40;64.90
32293;DHT22;43233;48.608;8.838;2022-12-18T16:06:24;-4.50;65.80
32293;DHT22;43233;48.608;8.838;2022-12-18T16:08:50;-4.50;67.00
32293;DHT22;43233;48.608;8.838;2022-12-18T16:11:29;-4.50;68.10
32293;DHT22;43233;48.608;8.838;2022-12-18T16:14:20;-4.50;68.10
32293;DHT22;43233;48.608;8.838;2022-12-18T16:16:48;-4.50;68.30
32293;DHT22;43233;48.608;8.838;2022-12-18T16:19:15;-4.40;68.30
32293;DHT22;43233;48.608;8.838;2022-12-18T16:21:41;-4.40;68.70
32293;DHT22;43233;48.608;8.838;2022-12-18T16:24:15;-4.40;69.20
32293;DHT22;43233;48.608;8.838;2022-12-18T16:26:42;-4.40;69.50
32293;DHT22;43233;48.608;8.838;2022-12-18T16:29:08;-4.30;69.60
32293;DHT22;43233;48.608;8.838;2022-12-18T16:31:34;-4.30;69.50
32293;DHT22;43233;48.608;8.838;2022-12-18T16:34:19;-4.20;69.60
32293;DHT22;43233;48.608;8.838;2022-12-18T16:36:52;-4.20;69.70
32293;DHT22;43233;48.608;8.838;2022-12-18T16:39:19;-4.10;69.40
32293;DHT22;43233;48.608;8.838;2022-12-18T16:41:45;-3.90;69.10
32293;DHT22;43233;48.608;8.838;2022-12-18T16:44:11;-3.90;68.90
32293;DHT22;43233;48.608;8.838;2022-12-18T16:46:37;-3.90;68.70
32293;DHT22;43233;48.608;8.838;2022-12-18T16:49:04;-3.90;69.10
32293;DHT22;43233;48.608;8.838;2022-12-18T16:51:30;-3.90;69.30
32293;DHT22;43233;48.608;8.838;2022-12-18T16:53:58;-3.90;69.50
32293;DHT22;43233;48.608;8.838;2022-12-18T16:56:24;-3.90;69.50
32293;DHT22;43233;48.608;8.838;2022-12-18T16:58:55;-3.90;69.60
32293;DHT22;43233;48.608;8.838;2022-12-18T17:01:21;-3.80;69.80
32293;DHT22;43233;48.608;8.838;2022-12-18T17:03:51;-3.90;69.80
32293;DHT22;43233;48.608;8.838;2022-12-18T17:06:18;-3.90;70.70
32293;DHT22;43233;48.608;8.838;2022-12-18T17:08:43;-3.90;70.90
32293;DHT22;43233;48.608;8.838;2022-12-18T17:11:09;-3.90;71.40
32293;DHT22;43233;48.608;8.838;2022-12-18T17:13:35;-3.90;71.70
32293;DHT22;43233;48.608;8.838;2022-12-18T17:16:05;-3.90;72.80
32293;DHT22;43233;48.608;8.838;2022-12-18T17:18:31;-3.90;71.90
32293;DHT22;43233;48.608;8.838;2022-12-18T17:21:01;-3.80;71.60
32293;DHT22;43233;48.608;8.838;2022-12-18T17:23:28;-3.80;71.70
32293;DHT22;43233;48.608;8.838;2022-12-18T17:25:58;-3.90;72.40
32293;DHT22;43233;48.608;8.838;2022-12-18T17:28:25;-3.90;72.90
32293;DHT22;43233;48.608;8.838;2022-12-18T17:30:54;-3.90;73.30
32293;DHT22;43233;48.608;8.838;2022-12-18T17:33:21;-3.90;73.20
32293;DHT22;43233;48.608;8.838;2022-12-18T17:35:47;-3.80;73.00
32293;DHT22;43233;48.608;8.838;2022-12-18T17:38:13;-3.80;73.00
32293;DHT22;43233;48.608;8.838;2022-12-18T17:40:39;-3.70;72.70
32293;DHT22;43233;48.608;8.838;2022-12-18T17:43:06;-3.80;72.40
32293;DHT22;43233;48.608;8.838;2022-12-18T17:45:37;-3.80;74.00
32293;DHT22;43233;48.608;8.838;2022-12-18T17:48:04;-3.80;73.50
32293;DHT22;43233;48.608;8.838;2022-12-18T17:50:31;-3.70;73.30
32293;DHT22;43233;48.608;8.838;2022-12-18T17:52:57;-3.70;72.70
32293;DHT22;43233;48.608;8.838;2022-12-18T17:55:23;-3.60;72.50
32293;DHT22;43233;48.608;8.838;2022-12-18T17:57:49;-3.70;72.30